Time;durP1;ratioP1;P1;durP2;ratioP2;P2;SDS_P1;SDS_P2;PMS_P1;PMS_P2;Temp;Humidity;BMP_temperature;BMP_pressure;BME280_temperature;BME280_humidity;BME280_pressure;Samples;Min_cycle;Max_cycle;Signal;HPM_P1;HPM_P2
2022/05/23 00:02:16;;;;;;;1.75;1.15;;;;;;;23.40;41.47;101050.44;5018825;28;20439;-62
2022/05/23 00:04:42;;;;;;;0.90;0.90;;;;;;;23.40;41.24;101047.81;5029672;28;20025;-62
2022/05/23 00:07:16;;;;;;;3.03;1.10;;;;;;;23.42;40.92;101050.41;5025974;28;20083;-62
2022/05/23 00:09:41;;;;;;;1.17;0.88;;;;;;;23.40;40.99;101049.53;5034578;28;20120;-62
2022/05/23 00:12:07;;;;;;;1.42;1.33;;;;;;;23.41;41.42;101051.28;5019229;28;20039;-62
2022/05/23 00:14:33;;;;;;;1.55;0.98;;;;;;;23.38;41.60;101043.41;5015515;28;20068;-62
2022/05/23 00:17:00;;;;;;;2.35;0.98;;;;;;;23.39;41.54;101038.16;5052690;28;20439;-62
2022/05/23 00:19:26;;;;;;;1.15;1.10;;;;;;;23.34;41.55;101043.41;5035283;28;20041;-61
2022/05/23 00:21:51;;;;;;;1.20;1.10;;;;;;;23.39;41.18;101047.78;5053191;28;20108;-61
2022/05/23 00:24:18;;;;;;;1.27;1.00;;;;;;;23.40;41.21;101049.53;5015586;28;20033;-62
2022/05/23 00:26:46;;;;;;;1.08;1.00;;;;;;;23.34;40.99;101038.13;5029835;28;20033;-61
2022/05/23 00:29:12;;;;;;;1.45;1.35;;;;;;;23.31;41.70;101027.63;5017759;28;20044;-65
2022/05/23 00:35:17;;;;;;;1.10;0.90;;;;;;;23.38;41.48;101046.03;5049821;28;20033;-62
2022/05/23 00:37:06;;;;;;;1.00;1.00;;;;;;;23.38;41.56;101038.16;5037777;28;20456;-62
2022/05/23 00:39:32;;;;;;;1.30;1.15;;;;;;;23.38;41.61;101043.41;5046908;28;20069;-62
2022/05/23 00:44:41;;;;;;;1.23;1.10;;;;;;;23.36;41.45;101039.88;5050466;28;20489;-61
2022/05/23 00:47:19;;;;;;;1.00;1.00;;;;;;;23.36;41.17;101039.88;5034213;28;20040;-62
2022/05/23 00:49:44;;;;;;;1.02;1.00;;;;;;;23.37;40.81;101031.13;5036050;28;20025;-61
2022/05/23 00:52:13;;;;;;;1.38;1.15;;;;;;;23.37;41.13;101033.75;5047216;23;20086;-61
2022/05/23 00:54:44;;;;;;;1.08;1.02;;;;;;;23.36;41.56;101030.28;5054058;28;20090;-61
2022/05/23 00:57:13;;;;;;;1.00;1.00;;;;;;;23.37;40.80;101025.88;5054212;28;20036;-61
2022/05/23 00:59:42;;;;;;;0.82;0.82;;;;;;;23.33;41.36;101018.00;5036124;28;20032;-62
2022/05/23 01:02:09;;;;;;;1.48;0.95;;;;;;;23.37;41.49;101020.63;5058490;22;20053;-62
2022/05/23 01:04:35;;;;;;;1.20;1.20;;;;;;;23.36;40.96;101018.88;5035059;28;20045;-62
2022/05/23 01:07:00;;;;;;;0.80;0.80;;;;;;;23.36;41.18;101013.59;5034238;28;20104;-61
2022/05/23 01:09:27;;;;;;;0.80;0.80;;;;;;;23.34;41.28;101006.59;5035393;28;20115;-62
2022/05/23 01:11:54;;;;;;;0.85;0.85;;;;;;;23.31;41.77;100996.09;5074280;22;20049;-62
2022/05/23 01:14:20;;;;;;;0.70;0.70;;;;;;;23.29;41.21;100996.94;5054121;28;20036;-62
2022/05/23 01:16:46;;;;;;;1.08;0.95;;;;;;;23.32;41.32;100992.59;5067187;28;20029;-61
2022/05/23 01:19:11;;;;;;;1.00;1.00;;;;;;;23.37;41.07;100999.59;5047756;28;20024;-60
2022/05/23 01:21:51;;;;;;;0.90;0.90;;;;;;;23.36;41.62;100992.59;5033672;28;20370;-61
2022/05/23 01:24:37;;;;;;;1.08;0.98;;;;;;;23.34;41.06;100995.22;5054364;28;20044;-62
2022/05/23 01:27:08;;;;;;;1.05;0.93;;;;;;;23.33;41.17;100989.06;5054721;28;20051;-61
2022/05/23 01:29:33;;;;;;;1.08;0.75;;;;;;;23.32;41.27;100982.06;5053803;28;20436;-61
2022/05/23 01:31:59;;;;;;;1.17;1.05;;;;;;;23.33;41.32;100983.81;5049215;23;20138;-63
2022/05/23 01:34:26;;;;;;;0.95;0.93;;;;;;;23.31;40.91;100984.69;5024890;28;20025;-62
2022/05/23 01:36:52;;;;;;;1.27;1.10;;;;;;;23.32;41.14;100976.81;5029952;28;20094;-62
2022/05/23 01:39:17;;;;;;;1.38;1.00;;;;;;;23.29;41.47;100971.56;5052989;28;20470;-61
2022/05/23 01:41:42;;;;;;;8.82;1.10;;;;;;;23.32;41.42;100987.31;5032744;22;20048;-62
2022/05/23 01:44:08;;;;;;;1.38;1.27;;;;;;;23.31;41.15;100974.16;5056169;28;20078;-62
2022/05/23 01:46:33;;;;;;;0.98;0.98;;;;;;;23.32;41.34;100976.81;5091112;28;20063;-62
2022/05/23 01:48:59;;;;;;;2.72;1.33;;;;;;;23.32;41.07;100976.81;5073776;28;20051;-62
2022/05/23 01:53:51;;;;;;;0.90;0.90;;;;;;;23.29;41.14;100966.28;5043588;28;20065;-60
2022/05/23 01:56:16;;;;;;;1.15;1.05;;;;;;;23.31;41.50;100964.56;5026431;28;20033;-60
2022/05/23 02:01:26;;;;;;;2.80;1.67;;;;;;;23.18;41.20;100937.34;4872849;22;20181;-60
2022/05/23 02:03:51;;;;;;;0.98;0.93;;;;;;;23.31;41.38;100954.03;5026670;28;20041;-61
2022/05/23 02:06:17;;;;;;;1.75;0.93;;;;;;;23.31;41.37;100948.78;5031803;28;20041;-60
2022/05/23 02:08:42;;;;;;;0.70;0.70;;;;;;;23.30;40.90;100944.41;5015285;28;20505;-60
2022/05/23 02:11:08;;;;;;;1.23;1.13;;;;;;;23.31;41.17;100947.88;5060137;22;20041;-60
2022/05/23 02:13:38;;;;;;;1.13;1.13;;;;;;;23.31;41.45;100943.53;5049475;23;20064;-60
2022/05/23 02:16:04;;;;;;;0.98;0.98;;;;;;;23.29;41.52;100940.03;5048615;28;20036;-60
2022/05/23 02:18:30;;;;;;;0.80;0.80;;;;;;;23.30;41.16;100936.53;5052153;28;20174;-61
2022/05/23 02:21:05;;;;;;;0.65;0.65;;;;;;;23.30;41.11;100930.38;5062642;22;20509;-62
2022/05/23 02:23:30;;;;;;;1.75;0.88;;;;;;;23.25;40.92;100919.88;5072944;22;20068;-62
2022/05/23 02:25:55;;;;;;;1.77;1.20;;;;;;;23.27;41.33;100925.13;5053749;28;20060;-60
2022/05/23 02:28:21;;;;;;;3.53;1.48;;;;;;;23.28;41.44;100925.13;5052947;28;20074;-60
2022/05/23 02:30:47;;;;;;;5.35;1.13;;;;;;;23.29;41.29;100923.38;5066249;28;20438;-60
2022/05/23 02:33:13;;;;;;;1.10;1.10;;;;;;;23.29;41.11;100919.00;5063509;22;20044;-61
2022/05/23 02:35:39;;;;;;;2.58;1.45;;;;;;;23.29;41.05;100919.00;5022337;28;20536;-61
2022/05/23 02:38:04;;;;;;;1.30;1.20;;;;;;;23.22;41.17;100901.44;5046434;28;20059;-60
2022/05/23 02:40:33;;;;;;;0.93;0.85;;;;;;;23.25;41.16;100912.00;5053443;28;20032;-60
2022/05/23 02:42:58;;;;;;;1.05;1.00;;;;;;;23.27;41.59;100904.97;5069518;28;20128;-61
2022/05/23 02:45:26;;;;;;;0.95;0.95;;;;;;;23.27;41.21;100910.25;5053389;28;20032;-60
2022/05/23 02:47:52;;;;;;;0.70;0.70;;;;;;;23.28;41.23;100901.47;5057858;28;20032;-61
2022/05/23 02:50:20;;;;;;;0.60;0.60;;;;;;;23.27;41.08;100891.84;5053107;28;20448;-60
2022/05/23 02:52:45;;;;;;;0.95;0.95;;;;;;;23.28;41.50;100901.47;5037833;28;20033;-60
2022/05/23 02:55:11;;;;;;;1.10;1.00;;;;;;;23.29;41.36;100902.34;5039683;28;20039;-61
2022/05/23 02:57:37;;;;;;;1.13;1.10;;;;;;;23.27;41.73;100894.47;5037498;28;20063;-60
2022/05/23 03:00:08;;;;;;;0.90;0.90;;;;;;;23.27;41.42;100889.22;5066937;28;20072;-60
2022/05/23 03:05:20;;;;;;;1.50;1.40;;;;;;;23.26;40.88;100882.22;5069104;28;20036;-60
2022/05/23 03:07:45;;;;;;;0.95;0.95;;;;;;;23.26;41.27;100876.97;5056962;28;20047;-60
2022/05/23 03:10:11;;;;;;;0.93;0.93;;;;;;;23.26;41.25;100882.22;5033826;28;20029;-61
2022/05/23 03:12:37;;;;;;;1.23;1.00;;;;;;;23.26;41.34;100887.47;5050691;28;20067;-61
2022/05/23 03:15:05;;;;;;;0.70;0.70;;;;;;;23.27;41.23;100894.47;5047193;28;20119;-60
2022/05/23 03:17:30;;;;;;;1.30;1.20;;;;;;;23.26;41.49;100884.84;5039400;28;20036;-61
2022/05/23 03:19:56;;;;;;;1.45;0.73;;;;;;;23.26;41.24;100887.47;5058766;28;20044;-61
2022/05/23 03:27:49;;;;;;;0.90;0.90;;;;;;;23.27;40.75;100889.22;5052349;28;20035;-61
2022/05/23 03:30:15;;;;;;;0.90;0.90;;;;;;;23.28;41.22;100890.97;5072014;28;20041;-62
2022/05/23 03:32:42;;;;;;;2.40;0.98;;;;;;;23.27;41.35;100885.69;5069133;28;20090;-61
2022/05/23 03:35:08;;;;;;;0.80;0.80;;;;;;;23.27;40.81;100889.22;5055870;28;20059;-61
2022/05/23 03:37:34;;;;;;;0.80;0.80;;;;;;;23.26;41.06;100882.22;5049988;28;20465;-61
2022/05/23 03:40:04;;;;;;;0.98;0.98;;;;;;;23.27;41.45;100876.06;5066241;28;20033;-62
2022/05/23 03:42:30;;;;;;;1.00;1.00;;;;;;;23.27;41.17;100868.19;5049703;28;20062;-61
2022/05/23 03:44:55;;;;;;;2.80;1.23;;;;;;;23.18;40.89;100852.41;5053765;28;20050;-61
2022/05/23 03:47:21;;;;;;;2.50;0.90;;;;;;;23.26;41.05;100870.81;5038899;28;20030;-61
2022/05/23 03:49:46;;;;;;;1.40;1.30;;;;;;;23.28;40.89;100875.19;5034618;28;20342;-61
2022/05/23 03:52:11;;;;;;;2.65;1.15;;;;;;;23.28;41.35;100875.19;5045527;28;20032;-61
2022/05/23 03:54:39;;;;;;;0.80;0.80;;;;;;;23.30;41.17;100876.06;5037731;28;20121;-61
2022/05/23 03:57:04;;;;;;;1.20;1.00;;;;;;;23.29;41.27;100871.69;5054968;28;20059;-61
2022/05/23 03:59:30;;;;;;;1.10;0.82;;;;;;;23.28;40.85;100869.94;5045358;28;20033;-62
2022/05/23 04:01:57;;;;;;;0.88;0.88;;;;;;;23.29;41.04;100865.56;5034038;28;20028;-61
2022/05/23 04:04:27;;;;;;;0.85;0.85;;;;;;;23.29;40.79;100855.94;5039948;28;20466;-62
2022/05/23 04:06:57;;;;;;;1.58;1.20;;;;;;;23.29;41.41;100850.69;5033691;28;20157;-62
2022/05/23 04:09:23;;;;;;;0.93;0.93;;;;;;;23.28;40.93;100848.94;5048291;28;20480;-62
2022/05/23 04:11:48;;;;;;;1.05;0.93;;;;;;;23.27;41.23;100847.19;5052770;28;20077;-61
2022/05/23 04:14:13;;;;;;;0.75;0.75;;;;;;;23.25;41.05;100843.66;5055503;28;20036;-61
2022/05/23 04:16:39;;;;;;;1.10;1.10;;;;;;;23.27;40.68;100841.91;5054933;28;20035;-61
2022/05/23 04:19:08;;;;;;;1.27;1.17;;;;;;;23.28;40.91;100838.41;5026010;28;20083;-60
2022/05/23 04:21:34;;;;;;;0.80;0.80;;;;;;;23.28;41.20;100843.66;5053637;28;20094;-61
2022/05/23 04:23:59;;;;;;;1.00;1.00;;;;;;;23.25;40.99;100838.41;5054954;28;20441;-61
2022/05/23 04:26:24;;;;;;;1.33;1.00;;;;;;;23.25;41.15;100854.19;5055090;28;20036;-61
2022/05/23 04:28:50;;;;;;;1.20;1.10;;;;;;;23.26;41.38;100855.94;5055067;28;20107;-61
2022/05/23 04:31:15;;;;;;;0.77;0.77;;;;;;;23.29;41.58;100850.69;5036773;28;20024;-61
2022/05/23 04:36:25;;;;;;;3.33;1.30;;;;;;;23.29;40.96;100847.16;5051943;28;20036;-62
2022/05/23 04:38:52;;;;;;;0.57;0.57;;;;;;;23.28;40.66;100843.66;5062360;28;20238;-61
2022/05/23 04:41:19;;;;;;;0.77;0.77;;;;;;;23.18;40.84;100824.34;5054418;28;20097;-62
2022/05/23 04:43:45;;;;;;;1.25;1.10;;;;;;;23.27;41.10;100841.91;5038917;28;20071;-62
2022/05/23 04:46:10;;;;;;;0.93;0.93;;;;;;;23.28;40.71;100843.66;5050460;28;20056;-63
2022/05/23 04:51:19;;;;;;;0.95;0.82;;;;;;;23.32;41.09;100840.16;5057815;28;20031;-61
2022/05/23 04:53:44;;;;;;;1.17;1.00;;;;;;;23.32;41.33;100824.41;5054731;28;20036;-61
2022/05/23 04:56:10;;;;;;;1.38;1.27;;;;;;;23.27;40.74;100815.66;5071867;28;20035;-61
2022/05/23 04:58:35;;;;;;;0.82;0.82;;;;;;;23.29;40.97;100819.16;5034809;28;20037;-64
2022/05/23 05:01:01;;;;;;;1.27;1.15;;;;;;;23.33;40.72;100810.38;5033555;28;20462;-62
2022/05/23 05:03:26;;;;;;;1.20;1.13;;;;;;;23.33;40.96;100813.00;5073065;28;20456;-60
2022/05/23 05:05:51;;;;;;;1.27;1.25;;;;;;;23.37;40.68;100810.38;5037049;28;20033;-61
2022/05/23 05:08:17;;;;;;;0.80;0.80;;;;;;;23.38;41.14;100812.13;5053590;28;20456;-60
2022/05/23 05:10:45;;;;;;;0.80;0.80;;;;;;;23.38;41.15;100805.13;5054194;28;20123;-61
2022/05/23 05:13:10;;;;;;;0.85;0.85;;;;;;;23.38;40.93;100798.97;5048234;28;20064;-61
2022/05/23 05:15:36;;;;;;;1.30;1.17;;;;;;;23.39;40.80;100787.59;5043346;28;20063;-61
2022/05/23 05:18:03;;;;;;;3.90;1.10;;;;;;;23.38;41.15;100786.75;5055211;28;20128;-61
2022/05/23 05:20:29;;;;;;;1.85;1.00;;;;;;;23.39;40.57;100783.22;5054380;28;20370;-61
2022/05/23 05:22:55;;;;;;;0.70;0.70;;;;;;;23.42;40.70;100793.75;5049393;28;20087;-61
2022/05/23 05:25:20;;;;;;;1.05;0.93;;;;;;;23.42;40.60;100771.81;5036145;28;20041;-61
2022/05/23 05:27:46;;;;;;;1.00;1.00;;;;;;;23.44;40.35;100764.81;5052855;28;20036;-61
2022/05/23 05:30:15;;;;;;;0.80;0.80;;;;;;;23.42;40.69;100761.31;5036534;28;20035;-62
2022/05/23 05:33:00;;;;;;;5.47;0.73;;;;;;;23.43;40.59;100752.53;5040775;28;20040;-61
2022/05/23 05:35:43;;;;;;;1.33;1.10;;;;;;;23.40;40.72;100747.28;5041889;28;20036;-59
2022/05/23 05:38:13;;;;;;;1.40;1.30;;;;;;;23.40;40.45;100747.28;5035920;28;20062;-61
2022/05/23 05:40:39;;;;;;;0.75;0.75;;;;;;;23.41;40.92;100738.53;5042882;28;20112;-61
2022/05/23 05:43:10;;;;;;;1.02;1.00;;;;;;;23.41;40.72;100733.28;5063454;28;20120;-61
2022/05/23 05:45:45;;;;;;;3.78;1.17;;;;;;;23.42;40.81;100729.78;5037649;28;20074;-61
2022/05/23 05:48:11;;;;;;;1.20;1.10;;;;;;;23.40;40.58;100726.28;5037616;28;20021;-61
2022/05/23 05:50:39;;;;;;;1.52;1.23;;;;;;;23.41;40.74;100722.75;5037839;28;20036;-60
2022/05/23 05:53:10;;;;;;;0.70;0.70;;;;;;;23.43;41.01;100728.91;5052323;28;20036;-61
2022/05/23 05:55:39;;;;;;;1.05;0.95;;;;;;;23.43;40.74;100723.63;5047871;28;20025;-61
2022/05/23 05:58:05;;;;;;;1.23;0.88;;;;;;;23.44;40.36;100717.50;5018114;28;20036;-61
2022/05/23 06:00:31;;;;;;;0.80;0.80;;;;;;;23.43;41.11;100716.63;5032366;28;20059;-61
2022/05/23 06:02:56;;;;;;;0.90;0.90;;;;;;;23.44;40.84;100714.88;5033675;28;20454;-61
2022/05/23 06:05:22;;;;;;;0.80;0.80;;;;;;;23.43;40.38;100710.50;5037159;28;20028;-61
2022/05/23 06:12:59;;;;;;;1.27;1.17;;;;;;;23.46;40.96;100705.22;5072077;28;20036;-61
2022/05/23 06:15:25;;;;;;;0.70;0.70;;;;;;;23.46;40.96;100694.72;5063488;28;20434;-60
2022/05/23 06:17:52;;;;;;;0.82;0.82;;;;;;;23.46;40.86;100697.34;5053954;28;20032;-61
2022/05/23 06:20:18;;;;;;;1.23;1.13;;;;;;;23.46;40.67;100694.72;5038558;28;20032;-61
2022/05/23 06:22:44;;;;;;;1.25;1.15;;;;;;;23.47;41.15;100701.72;5040808;28;20396;-61
2022/05/23 06:25:12;;;;;;;1.00;1.00;;;;;;;23.46;40.73;100686.84;5037889;28;20050;-61
2022/05/23 06:27:38;;;;;;;2.47;1.10;;;;;;;23.46;40.67;100689.47;5051258;28;20028;-61
2022/05/23 06:30:06;;;;;;;0.90;0.90;;;;;;;23.48;40.82;100698.22;5047759;28;20120;-62
2022/05/23 06:32:32;;;;;;;0.70;0.70;;;;;;;23.47;40.62;100683.31;5022816;28;20036;-62
2022/05/23 06:34:57;;;;;;;2.30;1.00;;;;;;;23.46;40.92;100668.44;5037787;28;20509;-61
2022/05/23 06:37:23;;;;;;;0.70;0.70;;;;;;;23.44;40.83;100667.56;5053893;28;20461;-61
2022/05/23 06:39:49;;;;;;;0.75;0.75;;;;;;;23.45;40.77;100671.94;5037517;28;20036;-63
2022/05/23 06:42:15;;;;;;;1.05;1.02;;;;;;;23.47;41.12;100680.69;5051103;28;20090;-61
2022/05/23 06:44:43;;;;;;;1.85;0.93;;;;;;;23.48;41.15;100682.44;5035853;28;20028;-62
2022/05/23 06:47:08;;;;;;;0.95;0.90;;;;;;;23.46;41.10;100674.59;5046760;28;20028;-62
2022/05/23 06:49:34;;;;;;;0.90;0.90;;;;;;;23.48;41.35;100675.44;5068339;28;20086;-62
2022/05/23 06:51:59;;;;;;;1.70;0.98;;;;;;;23.47;41.25;100675.44;5051177;28;20388;-63
2022/05/23 06:54:25;;;;;;;1.23;1.02;;;;;;;23.47;41.42;100671.06;5034906;28;20081;-61
2022/05/23 06:56:50;;;;;;;0.95;0.95;;;;;;;23.48;40.93;100671.94;5073548;28;20039;-62
2022/05/23 06:59:20;;;;;;;1.15;0.70;;;;;;;23.49;41.37;100663.16;5055510;28;20085;-62
2022/05/23 07:01:46;;;;;;;1.05;0.95;;;;;;;23.48;40.52;100664.94;5052869;28;20116;-62
2022/05/23 07:04:11;;;;;;;2.53;1.30;;;;;;;23.49;41.08;100663.16;5047062;28;20581;-63
2022/05/23 07:12:19;;;;;;;0.68;0.68;;;;;;;23.48;41.26;100664.03;5065068;28;20397;-63
2022/05/23 07:12:23;;;;;;;4.40;1.20;;;;;;;23.53;41.16;100670.16;5040340;28;20470;-73
2022/05/23 07:14:51;;;;;;;0.70;0.70;;;;;;;23.54;41.03;100671.91;5041395;28;20481;-60
2022/05/23 07:17:18;;;;;;;7.97;1.45;;;;;;;23.53;41.18;100659.63;5053006;28;20033;-59
2022/05/23 07:19:43;;;;;;;1.52;1.23;;;;;;;23.53;41.10;100658.78;5056058;28;20040;-58
2022/05/23 07:22:09;;;;;;;4.65;1.42;;;;;;;23.53;40.98;100657.00;5061519;28;20462;-59
2022/05/23 07:24:34;;;;;;;1.08;1.00;;;;;;;23.54;40.90;100661.38;5053928;28;20094;-60
2022/05/23 07:27:01;;;;;;;0.93;0.85;;;;;;;23.52;41.03;100647.38;5051266;28;20032;-59
2022/05/23 07:29:29;;;;;;;1.02;0.98;;;;;;;23.51;40.86;100650.88;5054408;28;20041;-59
2022/05/23 07:31:56;;;;;;;13.07;1.27;;;;;;;23.53;41.34;100643.88;5055263;28;20040;-61
2022/05/23 07:34:21;;;;;;;1.65;0.90;;;;;;;23.33;40.54;100636.94;5065833;28;20031;-62
2022/05/23 07:36:47;;;;;;;3.13;1.40;;;;;;;23.37;41.22;100623.78;5036976;28;20123;-59
2022/05/23 07:39:16;;;;;;;1.10;0.95;;;;;;;23.43;41.60;100632.53;5038515;28;20073;-59
2022/05/23 07:41:44;;;;;;;1.90;1.55;;;;;;;23.46;41.46;100626.38;5055863;28;20350;-62
2022/05/23 07:44:10;;;;;;;1.05;1.02;;;;;;;23.51;40.96;100671.91;5037000;28;20453;-62
2022/05/23 07:46:37;;;;;;;3.35;1.90;;;;;;;23.53;40.91;100628.09;5034944;28;20115;-63
2022/05/23 07:49:04;;;;;;;6.07;1.83;;;;;;;23.52;41.42;100622.88;5037009;28;20064;-60
2022/05/23 07:51:32;;;;;;;5.55;2.55;;;;;;;23.51;41.38;100608.84;5065741;28;20063;-60
2022/05/23 08:02:11;;;;;;;1.93;1.30;;;;;;;23.47;40.90;100597.47;5053528;28;20426;-61
2022/05/23 08:04:38;;;;;;;2.90;1.58;;;;;;;23.48;41.26;100593.06;5054302;28;20028;-60
2022/05/23 08:07:04;;;;;;;3.47;1.40;;;;;;;23.48;40.93;100593.06;5035418;28;20423;-60
2022/05/23 08:09:30;;;;;;;7.53;1.45;;;;;;;23.46;41.03;100579.97;5035948;28;20029;-61
2022/05/23 08:11:58;;;;;;;4.82;1.58;;;;;;;23.45;41.00;100569.44;5049399;28;20039;-61
2022/05/23 08:14:26;;;;;;;1.02;1.02;;;;;;;23.47;41.02;100589.59;5052629;28;20071;-61
2022/05/23 08:16:52;;;;;;;2.08;1.55;;;;;;;23.46;41.39;100589.59;5035102;28;20033;-61
2022/05/23 08:19:17;;;;;;;5.13;1.48;;;;;;;23.45;41.31;100582.59;5044810;28;20098;-60
2022/05/23 08:21:47;;;;;;;1.10;1.10;;;;;;;23.44;41.27;100565.06;5055454;28;20047;-61
2022/05/23 08:24:13;;;;;;;0.90;0.80;;;;;;;23.46;40.72;100563.31;5052474;28;20029;-61
2022/05/23 08:26:38;;;;;;;5.28;1.45;;;;;;;23.46;41.08;100558.06;5019729;28;20043;-61
2022/05/23 08:29:07;;;;;;;1.75;1.30;;;;;;;23.47;41.19;100554.53;5046734;28;20483;-61
2022/05/23 08:31:32;;;;;;;1.13;1.02;;;;;;;23.46;41.09;100553.69;5035890;28;20037;-62
2022/05/23 08:34:03;;;;;;;2.00;1.70;;;;;;;23.47;40.87;100554.53;5046060;28;20047;-61
2022/05/23 08:36:28;;;;;;;36.05;7.18;;;;;;;23.46;41.02;100558.06;5037865;28;20492;-61
2022/05/23 08:38:54;;;;;;;17.25;7.78;;;;;;;23.47;40.95;100555.44;5020222;28;20032;-61
2022/05/23 08:41:25;;;;;;;25.20;8.05;;;;;;;23.48;41.14;100551.03;5035904;28;20037;-61
2022/05/23 08:44:22;;;;;;;27.80;8.10;;;;;;;23.48;41.35;100551.91;5051925;28;20031;-63
2022/05/23 08:47:03;;;;;;;23.95;7.18;;;;;;;23.49;42.00;100548.41;5047413;28;20449;-61
2022/05/23 08:49:59;;;;;;;26.98;6.85;;;;;;;23.53;41.42;100549.25;5053470;28;20388;-62
2022/05/23 08:55:01;;;;;;;16.45;8.05;;;;;;;23.48;41.55;100527.38;5089422;28;20041;-60
2022/05/23 08:57:29;;;;;;;17.50;6.47;;;;;;;23.55;41.26;100542.22;5050547;28;20111;-60
2022/05/23 08:59:58;;;;;;;9.30;6.30;;;;;;;23.56;42.36;100543.97;5092603;28;20032;-60
2022/05/23 09:02:32;;;;;;;16.25;7.35;;;;;;;23.57;42.05;100540.47;5050480;28;20046;-60
2022/05/23 09:05:29;;;;;;;12.85;5.32;;;;;;;23.58;41.91;100539.56;5058744;28;20105;-59
2022/05/23 09:07:56;;;;;;;17.98;6.65;;;;;;;23.60;41.88;100550.09;5068818;28;20036;-61
2022/05/23 09:10:35;;;;;;;22.80;6.07;;;;;;;23.58;42.05;100531.69;4883301;22;20044;-48
2022/05/23 09:13:01;;;;;;;20.33;5.90;;;;;;;23.54;42.25;100524.69;5049017;28;20029;-52
2022/05/23 09:15:28;;;;;;;10.00;5.85;;;;;;;23.57;40.35;100537.81;5040426;28;20032;-55
2022/05/23 09:18:00;;;;;;;9.35;2.83;;;;;;;23.05;39.05;100528.44;5034162;28;20119;-55
2022/05/23 09:20:36;;;;;;;10.45;3.75;;;;;;;22.93;39.83;100534.63;5036036;28;20027;-53
2022/05/23 09:23:06;;;;;;;13.68;2.60;;;;;;;22.68;38.26;100524.16;5027018;28;20025;-49
2022/05/23 09:25:32;;;;;;;1.88;1.65;;;;;;;22.47;37.97;100520.72;5053372;28;20037;-52
2022/05/23 09:28:39;;;;;;;2.80;2.03;;;;;;;22.59;38.21;100504.09;5053986;28;20028;-57
2022/05/23 09:31:23;;;;;;;2.60;2.17;;;;;;;22.59;37.53;100516.31;5003048;28;20048;-52
2022/05/23 09:33:50;;;;;;;4.60;1.63;;;;;;;22.39;37.86;100501.47;5060933;28;20032;-52
2022/05/23 09:36:39;;;;;;;2.42;2.15;;;;;;;22.60;37.17;100502.31;5035291;28;20496;-51
2022/05/23 09:39:07;;;;;;;2.45;2.13;;;;;;;22.49;37.36;100498.84;5034266;28;20033;-53
2022/05/23 09:50:11;;;;;;;1.98;1.67;;;;;;;22.03;35.80;100474.41;5062307;28;20400;-54
2022/05/23 09:52:49;;;;;;;1.30;1.20;;;;;;;22.15;36.15;100468.28;5036290;28;20469;-50
2022/05/23 09:55:33;;;;;;;1.67;1.58;;;;;;;22.17;36.52;100467.41;5035076;28;20041;-44
2022/05/23 09:58:28;;;;;;;1.40;1.30;;;;;;;22.01;36.13;100460.44;5033041;28;20663;-56
2022/05/23 10:01:04;;;;;;;1.95;1.63;;;;;;;22.14;36.07;100462.16;5026447;28;20063;-52
2022/05/23 10:03:34;;;;;;;3.28;1.60;;;;;;;22.02;36.01;100463.03;5044224;28;20060;-49
2022/05/23 10:06:08;;;;;;;1.85;1.65;;;;;;;22.20;36.32;100465.66;5052244;28;20151;-44
2022/05/23 10:08:43;;;;;;;7.30;1.92;;;;;;;22.12;34.96;100453.44;5033176;28;20036;-52
2022/05/23 10:11:17;;;;;;;;;;;;;;;22.29;35.45;100455.16;5033313;28;20490;-50
2022/05/23 10:13:51;;;;;;;3.33;1.60;;;;;;;22.41;35.30;100449.88;5041194;28;19925;-46
2022/05/23 10:16:24;;;;;;;1.43;1.33;;;;;;;22.20;35.40;100436.81;5031344;28;20029;-51
2022/05/23 10:18:51;;;;;;;1.77;1.67;;;;;;;22.34;35.18;100442.88;5042217;28;20095;-52
2022/05/23 10:21:28;;;;;;;2.88;1.40;;;;;;;22.44;35.39;100444.59;5068017;28;20473;-51
2022/05/23 10:24:04;;;;;;;4.35;2.42;;;;;;;22.59;35.73;100437.59;5072094;28;20484;-51
2022/05/23 10:26:36;;;;;;;2.03;1.75;;;;;;;22.74;35.28;100437.53;5052495;28;20493;-47
2022/05/23 10:29:20;;;;;;;1.70;1.60;;;;;;;22.89;35.55;100436.59;5037133;28;20377;-44
2022/05/23 10:31:48;;;;;;;3.20;1.77;;;;;;;22.99;35.88;100426.94;5050119;28;20024;-52
2022/05/23 10:34:40;;;;;;;1.75;1.65;;;;;;;23.08;35.84;100419.88;5070823;28;20029;-51
2022/05/23 10:37:36;;;;;;;2.08;1.65;;;;;;;23.15;35.92;100421.56;5047826;28;20044;-49
2022/05/23 10:43:21;;;;;;;1.60;1.42;;;;;;;22.89;34.94;100414.72;5048176;28;20128;-53
2022/05/23 10:45:56;;;;;;;2.60;1.60;;;;;;;22.92;34.85;100419.97;5023536;28;20033;-51
2022/05/23 10:48:42;;;;;;;2.10;1.90;;;;;;;22.82;34.79;100413.00;5030956;28;20033;-53
2022/05/23 10:51:34;;;;;;;4.20;1.70;;;;;;;22.84;34.05;100421.75;5034400;28;20047;-52
2022/05/23 10:54:05;;;;;;;2.88;1.92;;;;;;;22.67;34.82;100404.31;5030956;28;20150;-49
2022/05/23 10:56:52;;;;;;;3.67;1.83;;;;;;;22.81;34.71;100400.78;5058566;28;20033;-50
2022/05/23 10:59:17;;;;;;;3.97;1.85;;;;;;;22.44;33.87;100407.88;5063903;28;20516;-53
2022/05/23 11:01:55;;;;;;;2.40;2.13;;;;;;;22.60;34.45;100397.34;5046972;28;20131;-46
2022/05/23 11:04:44;;;;;;;3.10;1.92;;;;;;;22.83;35.07;100388.50;5035820;28;20284;-52
2022/05/23 11:07:38;;;;;;;2.10;1.95;;;;;;;22.98;34.97;100388.41;5065826;28;20111;-49
2022/05/23 11:10:14;;;;;;;1.70;1.60;;;;;;;23.09;34.52;100384.84;5069724;28;20025;-54
2022/05/23 11:12:51;;;;;;;3.67;2.28;;;;;;;23.17;35.22;100372.53;5034200;28;20032;-60
2022/05/23 11:15:41;;;;;;;4.13;2.35;;;;;;;23.22;35.26;100360.22;5053188;28;20024;-50
2022/05/23 11:18:22;;;;;;;1.83;1.73;;;;;;;23.26;33.40;100361.97;5040326;28;20043;-49
2022/05/23 11:20:52;;;;;;;1.73;1.63;;;;;;;23.28;33.43;100377.72;5053229;28;20090;-49
2022/05/23 11:23:39;;;;;;;3.40;2.25;;;;;;;23.24;33.64;100371.63;5053938;28;20021;-51
2022/05/23 11:26:29;;;;;;;1.70;1.60;;;;;;;23.35;33.25;100361.03;5066421;28;20028;-50
2022/05/23 11:34:51;;;;;;;1.60;1.42;;;;;;;23.52;34.50;100358.25;5056157;28;20344;-50
2022/05/23 11:39:53;;;;;;;4.00;1.70;;;;;;;23.79;34.93;100345.72;5055791;28;20500;-48
2022/05/23 11:42:21;;;;;;;2.08;1.60;;;;;;;23.86;34.50;100352.69;5046662;28;20044;-52
2022/05/23 11:45:56;;;;;;;2.38;1.75;;;;;;;23.87;34.46;100354.44;5067630;28;20115;-55
2022/05/23 11:47:48;;;;;;;2.25;1.25;;;;;;;23.88;34.83;100344.78;5061818;28;20064;-51
2022/05/23 11:50:26;;;;;;;2.53;1.80;;;;;;;23.81;34.73;100341.31;5035485;28;20074;-48
2022/05/23 11:53:08;;;;;;;5.72;1.75;;;;;;;23.80;34.52;100336.94;5036961;28;20438;-48
2022/05/23 11:55:53;;;;;;;2.38;1.55;;;;;;;23.77;35.46;100322.09;5047597;28;20385;-47
2022/05/23 11:58:27;;;;;;;1.52;1.42;;;;;;;23.75;35.35;100333.50;5037082;28;20033;-48
2022/05/23 12:01:11;;;;;;;1.63;1.52;;;;;;;23.73;35.44;100309.88;5055676;28;20036;-51
2022/05/23 12:03:55;;;;;;;1.60;1.50;;;;;;;23.72;35.18;100307.25;5071789;28;20047;-47
2022/05/23 12:06:23;;;;;;;2.25;1.77;;;;;;;23.72;35.75;100296.72;5049213;28;20465;-49
2022/05/23 12:09:03;;;;;;;1.73;1.63;;;;;;;23.78;35.46;100296.66;5068172;28;20041;-55
2022/05/23 12:11:29;;;;;;;3.78;2.05;;;;;;;23.86;34.43;100293.94;5050185;28;20177;-48
2022/05/23 12:13:59;;;;;;;4.03;1.75;;;;;;;23.88;34.04;100286.91;5051823;28;20043;-49
2022/05/23 12:16:31;;;;;;;7.75;1.45;;;;;;;23.92;33.71;100284.25;5032313;28;20410;-55
2022/05/23 12:19:18;;;;;;;1.95;1.70;;;;;;;23.94;34.58;100292.09;5068315;28;20120;-56
2022/05/23 12:21:46;;;;;;;2.28;1.98;;;;;;;23.92;34.71;100273.72;5038509;28;20032;-49
2022/05/23 12:24:26;;;;;;;2.17;2.03;;;;;;;24.06;34.32;100264.81;5033670;28;20127;-50
2022/05/23 12:26:53;;;;;;;3.03;2.25;;;;;;;24.10;34.21;100256.00;5048520;28;20036;-51
2022/05/23 12:29:31;;;;;;;1.90;1.63;;;;;;;24.09;34.22;100264.78;5036305;28;20440;-52
2022/05/23 12:32:32;;;;;;;5.72;1.85;;;;;;;24.19;34.55;100270.78;5062831;28;20158;-60
2022/05/23 12:34:59;;;;;;;2.35;1.90;;;;;;;24.15;33.52;100254.19;4967012;28;20073;-57
2022/05/23 12:37:56;;;;;;;3.88;1.88;;;;;;;24.20;33.53;100247.09;5032600;28;20055;-56
2022/05/23 12:40:30;;;;;;;2.80;1.83;;;;;;;24.23;33.83;100230.38;5045437;28;20032;-52
2022/05/23 12:43:22;;;;;;;1.70;1.60;;;;;;;24.30;33.42;100241.72;5038836;28;20470;-47